createdAt,value
2023-03-24T00:00:35.743Z,16.30
2023-03-24T00:03:03.084Z,16.26
2023-03-24T00:05:30.965Z,16.23
2023-03-24T00:08:02.193Z,16.20
2023-03-24T00:10:35.138Z,16.19
2023-03-24T00:13:02.895Z,16.13
2023-03-24T00:15:31.569Z,16.07
2023-03-24T00:17:59.050Z,16.08
2023-03-24T00:20:26.876Z,16.05
2023-03-24T00:22:59.365Z,16.02
2023-03-24T00:25:36.217Z,15.97
2023-03-24T00:28:05.921Z,15.97
2023-03-24T00:30:35.228Z,15.85
2023-03-24T00:33:02.538Z,15.84
2023-03-24T00:35:29.616Z,15.83
2023-03-24T00:37:56.633Z,15.81
2023-03-24T00:40:23.621Z,15.82
2023-03-24T00:42:50.802Z,15.81
2023-03-24T00:45:23.076Z,15.82
2023-03-24T00:47:54.202Z,15.83
2023-03-24T00:50:27.162Z,15.84
2023-03-24T00:52:55.959Z,15.80
2023-03-24T00:55:23.249Z,15.79
2023-03-24T00:57:50.835Z,15.75
2023-03-24T01:00:21.357Z,15.68
2023-03-24T01:02:54.440Z,15.67
2023-03-24T01:05:23.453Z,15.65
2023-03-24T01:07:56.310Z,15.59
2023-03-24T01:10:26.994Z,15.63
2023-03-24T01:12:56.898Z,15.71
2023-03-24T01:15:27.908Z,15.74
2023-03-24T01:17:57.648Z,15.67
2023-03-24T01:20:25.252Z,15.62
2023-03-24T01:22:52.961Z,15.62
2023-03-24T01:25:23.179Z,15.67
2023-03-24T01:27:52.264Z,15.62
2023-03-24T01:30:23.259Z,15.62
2023-03-24T01:32:51.994Z,15.61
2023-03-24T01:35:22.499Z,15.53
2023-03-24T01:37:49.804Z,15.48
2023-03-24T01:40:20.157Z,15.46
2023-03-24T01:42:47.258Z,15.44
2023-03-24T01:45:56.279Z,15.40
2023-03-24T01:48:30.597Z,15.40
2023-03-24T01:51:03.886Z,15.41
2023-03-24T01:53:34.050Z,15.47
2023-03-24T01:56:03.814Z,15.52
2023-03-24T01:58:35.623Z,15.51
2023-03-24T02:01:04.684Z,15.56
2023-03-24T02:03:36.582Z,15.49
2023-03-24T02:06:06.799Z,15.46
2023-03-24T02:08:41.096Z,15.53
2023-03-24T02:11:09.394Z,15.58
2023-03-24T02:13:36.448Z,15.50
2023-03-24T02:16:24.077Z,15.58
2023-03-24T02:19:14.884Z,15.64
2023-03-24T02:22:26.305Z,15.55
2023-03-24T02:25:46.713Z,15.55
2023-03-24T02:28:32.067Z,15.60
2023-03-24T02:31:56.433Z,15.58
2023-03-24T02:35:15.539Z,15.64
2023-03-24T02:38:16.855Z,15.64
2023-03-24T02:40:56.343Z,15.71
2023-03-24T02:43:42.366Z,15.68
2023-03-24T02:46:21.367Z,15.69
2023-03-24T02:49:07.073Z,15.71
2023-03-24T02:51:43.464Z,15.81
2023-03-24T02:54:17.339Z,15.85
2023-03-24T02:56:54.167Z,15.82
2023-03-24T02:59:31.987Z,15.87
2023-03-24T03:02:06.999Z,15.91
2023-03-24T03:04:41.756Z,15.97
2023-03-24T03:07:11.590Z,16.05
2023-03-24T03:09:47.656Z,16.10
2023-03-24T03:12:19.362Z,16.06
2023-03-24T03:14:51.480Z,16.07
2023-03-24T03:17:23.673Z,16.13
2023-03-24T03:19:56.212Z,16.21
2023-03-24T03:22:28.817Z,16.15
2023-03-24T03:25:01.277Z,16.21
2023-03-24T03:27:38.891Z,16.24
2023-03-24T03:30:15.327Z,16.21
2023-03-24T03:32:54.312Z,16.10
2023-03-24T03:35:29.627Z,16.20
2023-03-24T03:38:09.833Z,16.31
2023-03-24T03:40:42.972Z,16.33
2023-03-24T03:43:11.709Z,16.27
2023-03-24T03:45:38.708Z,16.30
2023-03-24T03:48:06.576Z,16.34
2023-03-24T03:50:34.365Z,16.33
2023-03-24T03:53:01.360Z,16.33
2023-03-24T03:55:28.475Z,16.33
2023-03-24T03:57:55.849Z,16.37
2023-03-24T04:00:26.208Z,16.25
2023-03-24T04:03:27.809Z,16.20
2023-03-24T04:06:02.035Z,16.33
2023-03-24T04:08:45.116Z,16.26
2023-03-24T04:11:46.276Z,16.27
2023-03-24T04:14:38.123Z,16.20
2023-03-24T04:17:19.382Z,16.23
2023-03-24T04:20:06.393Z,16.21
2023-03-24T04:22:54.079Z,16.24
2023-03-24T04:25:35.186Z,16.35
2023-03-24T04:28:14.210Z,16.43
2023-03-24T04:30:46.368Z,16.51
2023-03-24T04:33:25.057Z,16.54
2023-03-24T04:36:01.601Z,16.51
2023-03-24T04:38:32.757Z,16.48
2023-03-24T04:41:01.418Z,16.47
2023-03-24T04:43:36.873Z,16.45
2023-03-24T04:46:05.577Z,16.43
2023-03-24T04:48:34.031Z,16.47
2023-03-24T04:51:04.006Z,16.52
2023-03-24T04:53:30.985Z,16.53
2023-03-24T04:56:24.592Z,16.49
2023-03-24T04:58:51.613Z,16.51
2023-03-24T05:01:21.384Z,16.53
2023-03-24T05:03:49.828Z,16.60
2023-03-24T05:06:17.429Z,16.63
2023-03-24T05:08:44.377Z,16.64
2023-03-24T05:11:11.682Z,16.62
2023-03-24T05:13:38.591Z,16.61
2023-03-24T05:16:06.918Z,16.63
2023-03-24T05:18:33.818Z,16.67
2023-03-24T05:21:02.021Z,16.66
2023-03-24T05:23:28.921Z,16.71
2023-03-24T05:25:55.945Z,16.75
2023-03-24T05:28:23.603Z,16.82
2023-03-24T05:30:50.712Z,16.73
2023-03-24T05:33:17.625Z,16.70
2023-03-24T05:35:44.826Z,16.55
2023-03-24T05:38:13.410Z,16.55
2023-03-24T05:40:41.137Z,16.66
2023-03-24T05:43:08.611Z,16.63
2023-03-24T05:45:35.781Z,16.60
2023-03-24T05:48:02.790Z,16.69
2023-03-24T05:50:29.900Z,16.76
2023-03-24T05:52:57.226Z,16.90
2023-03-24T05:55:25.563Z,16.89
2023-03-24T05:57:53.902Z,16.89
2023-03-24T06:00:21.259Z,16.94
2023-03-24T06:02:48.275Z,16.93
2023-03-24T06:05:15.400Z,17.02
2023-03-24T06:07:42.525Z,17.10
2023-03-24T06:10:11.373Z,17.18
2023-03-24T06:12:40.432Z,17.17
2023-03-24T06:15:10.084Z,17.17
2023-03-24T06:17:37.482Z,17.20
2023-03-24T06:20:11.706Z,17.24
2023-03-24T06:22:38.643Z,17.28
2023-03-24T06:25:09.614Z,17.30
2023-03-24T06:27:36.768Z,17.31
2023-03-24T06:30:08.544Z,17.32
2023-03-24T06:32:35.909Z,17.36
2023-03-24T06:35:03.595Z,17.36
2023-03-24T06:37:30.593Z,17.37
2023-03-24T06:39:57.660Z,17.39
2023-03-24T06:42:24.734Z,17.40
2023-03-24T06:44:51.651Z,17.39
2023-03-24T06:47:19.904Z,17.40
2023-03-24T06:49:46.860Z,17.43
2023-03-24T06:52:13.879Z,17.47
2023-03-24T06:54:42.117Z,17.50
2023-03-24T06:57:09.283Z,17.51
2023-03-24T06:59:36.232Z,17.40
2023-03-24T07:02:03.253Z,17.38
2023-03-24T07:04:36.405Z,17.35
2023-03-24T07:07:19.726Z,17.29
2023-03-24T07:09:50.698Z,17.20
2023-03-24T07:12:17.686Z,17.17
2023-03-24T07:14:44.686Z,17.29
2023-03-24T07:17:17.034Z,17.66
2023-03-24T07:19:48.355Z,18.27
2023-03-24T07:22:15.398Z,18.79
2023-03-24T07:24:42.476Z,19.09
2023-03-24T07:27:09.379Z,19.25
2023-03-24T07:29:36.375Z,19.31
2023-03-24T07:32:03.960Z,19.49
2023-03-24T07:34:32.068Z,19.74
2023-03-24T07:37:01.745Z,19.95
2023-03-24T07:39:29.194Z,20.13
2023-03-24T07:41:56.973Z,20.35
2023-03-24T07:44:23.945Z,20.34
2023-03-24T07:46:50.931Z,20.08
2023-03-24T07:49:19.831Z,20.15
2023-03-24T07:51:47.199Z,20.49
2023-03-24T07:54:15.435Z,20.61
2023-03-24T07:56:42.423Z,20.40
2023-03-24T07:59:12.334Z,20.02
2023-03-24T08:01:39.384Z,19.61
2023-03-24T08:04:06.791Z,19.29
2023-03-24T08:06:34.720Z,19.09
2023-03-24T08:09:01.714Z,18.96
2023-03-24T08:11:30.520Z,18.96
2023-03-24T08:13:58.388Z,18.91
2023-03-24T08:16:25.467Z,18.86
2023-03-24T08:18:52.871Z,18.87
2023-03-24T08:21:19.930Z,18.84
2023-03-24T08:23:47.074Z,18.80
2023-03-24T08:26:15.176Z,18.71
2023-03-24T08:28:43.642Z,18.62
2023-03-24T08:31:10.918Z,18.66
2023-03-24T08:33:37.927Z,18.72
2023-03-24T08:36:06.595Z,18.67
2023-03-24T08:38:33.588Z,18.67
2023-03-24T08:41:06.440Z,18.71
2023-03-24T08:43:35.801Z,18.72
2023-03-24T08:46:10.530Z,18.80
2023-03-24T08:48:41.184Z,19.11
2023-03-24T08:51:13.856Z,19.50
2023-03-24T08:53:41.885Z,19.58
2023-03-24T08:56:10.339Z,19.50
2023-03-24T08:58:37.983Z,19.36
2023-03-24T09:01:07.841Z,19.25
2023-03-24T09:03:35.930Z,19.14
2023-03-24T09:06:03.180Z,19.00
2023-03-24T09:08:30.215Z,18.93
2023-03-24T09:10:57.304Z,19.06
2023-03-24T09:13:25.025Z,19.16
2023-03-24T09:15:58.696Z,19.27
2023-03-24T09:18:27.901Z,19.35
2023-03-24T09:20:55.247Z,19.44
2023-03-24T09:23:22.698Z,19.53
2023-03-24T09:25:50.659Z,19.56
2023-03-24T09:28:18.285Z,19.50
2023-03-24T09:30:45.396Z,19.34
2023-03-24T09:33:12.691Z,19.40
2023-03-24T09:35:41.644Z,20.02
2023-03-24T09:38:11.482Z,20.76
2023-03-24T09:40:40.482Z,21.17
2023-03-24T09:43:18.144Z,21.17
2023-03-24T09:45:51.824Z,20.98
2023-03-24T09:48:35.621Z,20.84
2023-03-24T09:51:09.485Z,21.35
2023-03-24T09:53:46.516Z,22.68
2023-03-24T09:56:17.167Z,23.91
2023-03-24T09:58:52.954Z,25.01
2023-03-24T10:01:21.162Z,26.04
2023-03-24T10:03:48.921Z,26.86
2023-03-24T10:06:26.001Z,27.14
2023-03-24T10:09:14.274Z,26.64
2023-03-24T10:11:50.808Z,25.79
2023-03-24T10:14:42.153Z,24.75
2023-03-24T10:17:25.425Z,24.15
2023-03-24T10:20:00.677Z,23.73
2023-03-24T10:22:38.861Z,23.23
2023-03-24T10:25:19.212Z,22.63
2023-03-24T10:27:52.920Z,22.16
2023-03-24T10:30:23.961Z,22.04
2023-03-24T10:32:52.771Z,22.06
2023-03-24T10:35:28.449Z,22.61
2023-03-24T10:38:01.225Z,23.30
2023-03-24T10:40:33.752Z,22.96
2023-03-24T10:43:07.358Z,22.66
2023-03-24T10:45:41.344Z,22.28
2023-03-24T10:48:13.589Z,21.85
2023-03-24T10:50:46.798Z,21.61
2023-03-24T10:53:21.035Z,21.60
2023-03-24T10:55:51.214Z,22.07
2023-03-24T10:58:37.451Z,23.04
2023-03-24T11:01:22.940Z,23.60
2023-03-24T11:03:55.189Z,23.60
2023-03-24T11:06:22.364Z,23.50
2023-03-24T11:09:10.434Z,23.81
2023-03-24T11:11:40.185Z,23.81
2023-03-24T11:14:23.788Z,23.82
2023-03-24T11:16:51.571Z,23.66
2023-03-24T11:19:22.506Z,23.41
2023-03-24T11:21:59.507Z,23.01
2023-03-24T11:24:29.632Z,22.79
2023-03-24T11:27:01.643Z,22.71
2023-03-24T11:29:32.634Z,22.69
2023-03-24T11:32:03.328Z,22.61
2023-03-24T11:34:34.373Z,22.42
2023-03-24T11:37:08.234Z,22.15
2023-03-24T11:39:36.690Z,22.41
2023-03-24T11:42:17.258Z,22.66
2023-03-24T11:44:51.257Z,22.70
2023-03-24T11:47:31.501Z,22.89
2023-03-24T11:50:17.576Z,23.20
2023-03-24T11:52:52.559Z,23.57
2023-03-24T11:55:33.948Z,23.99
2023-03-24T11:58:09.716Z,23.97
2023-03-24T12:00:44.529Z,23.68
2023-03-24T12:04:04.244Z,23.08
2023-03-24T12:06:49.968Z,22.69
2023-03-24T12:09:32.549Z,22.39
2023-03-24T12:12:25.813Z,22.23
2023-03-24T12:15:28.504Z,22.30
2023-03-24T12:18:19.864Z,22.08
2023-03-24T12:20:57.681Z,21.83
2023-03-24T12:23:37.772Z,21.77
2023-03-24T12:26:17.358Z,21.67
2023-03-24T12:28:57.254Z,21.56
2023-03-24T12:32:12.380Z,21.64
2023-03-24T12:35:09.506Z,22.27
2023-03-24T12:37:49.186Z,23.55
2023-03-24T12:40:50.954Z,25.11
2023-03-24T12:43:33.973Z,26.13
2023-03-24T12:46:12.172Z,26.58
2023-03-24T12:48:59.755Z,27.11
2023-03-24T12:51:42.593Z,27.58
2023-03-24T12:54:29.881Z,27.79
2023-03-24T12:57:03.297Z,27.88
2023-03-24T12:59:38.989Z,27.98
2023-03-24T13:02:24.014Z,27.70
2023-03-24T13:04:59.819Z,27.18
2023-03-24T13:07:29.192Z,26.68
2023-03-24T13:10:06.896Z,26.43
2023-03-24T13:12:43.029Z,26.41
2023-03-24T13:15:19.603Z,26.46
2023-03-24T13:17:53.456Z,26.40
2023-03-24T13:20:29.224Z,26.47
2023-03-24T13:23:05.810Z,26.83
2023-03-24T13:25:49.982Z,27.35
2023-03-24T13:28:27.870Z,27.68
2023-03-24T13:30:57.045Z,27.55
2023-03-24T13:33:31.628Z,27.09
2023-03-24T13:36:22.346Z,26.72
2023-03-24T13:38:54.401Z,26.50
2023-03-24T13:41:26.862Z,26.12
2023-03-24T13:44:02.785Z,25.61
2023-03-24T13:46:30.303Z,25.23
2023-03-24T13:49:00.700Z,25.08
2023-03-24T13:51:31.934Z,24.88
2023-03-24T13:54:05.857Z,24.52
2023-03-24T13:56:36.970Z,24.13
2023-03-24T13:59:30.448Z,23.72
2023-03-24T14:02:21.931Z,23.94
2023-03-24T14:05:04.971Z,24.62
2023-03-24T14:07:44.345Z,25.33
2023-03-24T14:10:43.502Z,26.15
2023-03-24T14:13:23.189Z,26.14
2023-03-24T14:15:52.834Z,26.39
2023-03-24T14:18:42.591Z,26.32
2023-03-24T14:21:11.462Z,25.89
2023-03-24T14:23:43.190Z,25.09
2023-03-24T14:26:15.469Z,24.67
2023-03-24T14:28:46.611Z,24.26
2023-03-24T14:31:24.779Z,23.94
2023-03-24T14:34:20.648Z,23.60
2023-03-24T14:37:07.520Z,23.20
2023-03-24T14:39:41.682Z,23.01
2023-03-24T14:42:41.642Z,22.91
2023-03-24T14:45:51.171Z,22.89
2023-03-24T14:48:32.895Z,22.92
2023-03-24T14:51:07.666Z,22.87
2023-03-24T14:53:39.355Z,22.79
2023-03-24T14:56:14.788Z,22.68
2023-03-24T14:58:47.005Z,22.63
2023-03-24T15:01:15.636Z,22.54
2023-03-24T15:03:55.325Z,22.50
2023-03-24T15:06:24.074Z,22.48
2023-03-24T15:08:55.154Z,22.34
2023-03-24T15:11:27.455Z,22.21
2023-03-24T15:13:57.288Z,22.05
2023-03-24T15:16:27.047Z,21.95
2023-03-24T15:21:32.339Z,22.15
2023-03-24T15:24:02.079Z,22.45
2023-03-24T15:26:31.665Z,22.66
2023-03-24T15:29:02.094Z,22.86
2023-03-24T15:31:32.570Z,22.95
2023-03-24T15:34:23.798Z,22.79
2023-03-24T15:36:54.869Z,22.63
2023-03-24T15:39:27.782Z,22.45
2023-03-24T15:41:55.594Z,22.42
2023-03-24T15:44:27.356Z,22.38
2023-03-24T15:46:57.608Z,22.49
2023-03-24T15:49:29.886Z,22.45
2023-03-24T15:51:59.954Z,22.48
2023-03-24T15:54:31.971Z,22.42
2023-03-24T15:57:18.251Z,22.36
2023-03-24T15:59:48.602Z,22.47
2023-03-24T16:02:29.659Z,22.44
2023-03-24T16:05:11.017Z,22.21
2023-03-24T16:07:41.265Z,21.93
2023-03-24T16:10:32.306Z,21.62
2023-03-24T16:13:14.525Z,21.49
2023-03-24T16:15:44.749Z,21.42
2023-03-24T16:18:18.216Z,21.27
2023-03-24T16:20:45.275Z,21.11
2023-03-24T16:23:14.919Z,20.98
2023-03-24T16:25:43.393Z,20.83
2023-03-24T16:28:13.348Z,20.52
2023-03-24T16:30:44.134Z,20.36
2023-03-24T16:33:12.593Z,20.24
2023-03-24T16:35:39.728Z,20.13
2023-03-24T16:38:06.853Z,20.07
2023-03-24T16:40:39.289Z,19.87
2023-03-24T16:43:07.610Z,19.91
2023-03-24T16:45:35.507Z,19.91
2023-03-24T16:48:02.841Z,19.82
2023-03-24T16:50:36.770Z,19.75
2023-03-24T16:53:04.721Z,19.64
2023-03-24T16:55:31.859Z,19.51
2023-03-24T16:57:59.104Z,19.37
2023-03-24T17:00:29.788Z,19.12
2023-03-24T17:02:59.901Z,18.86
2023-03-24T17:05:31.807Z,18.56
2023-03-24T17:07:58.960Z,18.45
2023-03-24T17:10:28.068Z,18.46
2023-03-24T17:12:57.448Z,18.43
2023-03-24T17:15:28.812Z,18.35
2023-03-24T17:17:56.548Z,18.37
2023-03-24T17:20:25.025Z,18.39
2023-03-24T17:22:56.564Z,18.36
2023-03-24T17:25:24.258Z,18.30
2023-03-24T17:27:51.745Z,18.20
2023-03-24T17:30:21.835Z,18.02
2023-03-24T17:32:50.505Z,17.92
2023-03-24T17:35:20.268Z,17.80
2023-03-24T17:37:48.120Z,17.77
2023-03-24T17:40:17.940Z,17.71
2023-03-24T17:42:46.741Z,17.65
2023-03-24T17:45:17.308Z,17.65
2023-03-24T17:47:45.451Z,17.65
2023-03-24T17:50:14.847Z,17.52
2023-03-24T17:52:46.431Z,17.44
2023-03-24T17:55:16.254Z,17.43
2023-03-24T17:57:44.319Z,17.39
2023-03-24T18:00:14.479Z,17.35
2023-03-24T18:02:43.465Z,17.29
2023-03-24T18:05:13.364Z,17.18
2023-03-24T18:07:40.693Z,17.06
2023-03-24T18:10:09.440Z,16.99
2023-03-24T18:12:37.047Z,16.95
2023-03-24T18:15:06.963Z,16.86
2023-03-24T18:17:34.114Z,16.82
2023-03-24T18:20:09.798Z,16.81
2023-03-24T18:22:40.749Z,16.75
2023-03-24T18:25:10.531Z,16.68
2023-03-24T18:27:37.923Z,16.53
2023-03-24T18:30:07.737Z,16.39
2023-03-24T18:32:35.836Z,16.34
2023-03-24T18:35:02.841Z,16.39
2023-03-24T18:37:30.216Z,16.45
2023-03-24T18:39:58.516Z,16.49
2023-03-24T18:42:25.468Z,16.50
2023-03-24T18:44:52.615Z,16.52
2023-03-24T18:47:20.484Z,16.50
2023-03-24T18:49:47.404Z,16.53
2023-03-24T18:52:17.898Z,16.54
2023-03-24T18:54:45.669Z,16.54
2023-03-24T18:57:14.233Z,16.55
2023-03-24T18:59:41.363Z,16.50
2023-03-24T19:02:10.923Z,16.45
2023-03-24T19:04:38.141Z,16.33
2023-03-24T19:07:08.034Z,16.14
2023-03-24T19:09:35.578Z,16.05
2023-03-24T19:12:02.603Z,16.06
2023-03-24T19:14:31.509Z,16.03
2023-03-24T19:16:59.635Z,15.98
2023-03-24T19:19:27.923Z,15.95
2023-03-24T19:21:54.845Z,15.96
2023-03-24T19:24:22.096Z,15.85
2023-03-24T19:26:48.977Z,15.70
2023-03-24T19:29:16.503Z,15.68
2023-03-24T19:31:45.267Z,15.67
2023-03-24T19:34:12.212Z,15.58
2023-03-24T19:36:44.265Z,15.67
2023-03-24T19:39:15.006Z,15.67
2023-03-24T19:41:42.049Z,15.65
2023-03-24T19:44:09.052Z,15.68
2023-03-24T19:46:36.305Z,15.65
2023-03-24T19:49:04.719Z,15.56
2023-03-24T19:51:31.625Z,15.52
2023-03-24T19:53:58.679Z,15.50
2023-03-24T19:56:25.906Z,15.57
2023-03-24T19:58:53.169Z,15.61
2023-03-24T20:01:21.432Z,15.63
2023-03-24T20:03:48.560Z,15.64
2023-03-24T20:06:19.532Z,15.67
2023-03-24T20:08:46.808Z,15.64
2023-03-24T20:11:13.999Z,15.64
2023-03-24T20:13:41.406Z,15.66
2023-03-24T20:16:08.397Z,15.69
2023-03-24T20:18:35.762Z,15.69
2023-03-24T20:21:03.704Z,15.72
2023-03-24T20:23:32.031Z,15.73
2023-03-24T20:26:00.435Z,15.57
2023-03-24T20:28:28.086Z,15.43
2023-03-24T20:30:59.351Z,15.38
2023-03-24T20:33:28.532Z,15.32
2023-03-24T20:35:56.679Z,15.36
2023-03-24T20:38:24.350Z,15.32
2023-03-24T20:41:01.144Z,15.27
2023-03-24T20:43:28.728Z,15.23
2023-03-24T20:45:57.409Z,15.27
2023-03-24T20:48:25.611Z,15.24
2023-03-24T20:50:52.668Z,15.24
2023-03-24T20:53:20.599Z,15.22
2023-03-24T20:55:59.513Z,15.18
2023-03-24T20:58:27.413Z,15.19
2023-03-24T21:00:55.022Z,15.18
2023-03-24T21:03:22.184Z,15.16
2023-03-24T21:05:49.545Z,15.15
2023-03-24T21:08:17.692Z,15.14
2023-03-24T21:10:44.764Z,15.10
2023-03-24T21:13:13.194Z,15.06
2023-03-24T21:15:44.665Z,14.97
2023-03-24T21:18:11.930Z,14.88
2023-03-24T21:20:39.909Z,14.82
2023-03-24T21:23:09.388Z,14.74
2023-03-24T21:25:37.514Z,14.75
2023-03-24T21:28:05.250Z,14.79
2023-03-24T21:30:33.655Z,14.77
2023-03-24T21:33:01.334Z,14.74
2023-03-24T21:35:28.474Z,14.78
2023-03-24T21:37:56.049Z,14.85
2023-03-24T21:40:25.306Z,14.90
2023-03-24T21:42:55.777Z,14.90
2023-03-24T21:45:23.802Z,14.86
2023-03-24T21:47:55.116Z,14.84
2023-03-24T21:50:25.626Z,14.85
2023-03-24T21:52:54.549Z,14.84
2023-03-24T21:55:22.940Z,14.77
2023-03-24T21:57:51.699Z,14.69
2023-03-24T22:00:23.584Z,14.72
2023-03-24T22:02:54.433Z,14.71
2023-03-24T22:05:24.243Z,14.71
2023-03-24T22:07:52.558Z,14.72
2023-03-24T22:10:23.564Z,14.80
2023-03-24T22:12:51.546Z,14.87
2023-03-24T22:15:19.804Z,14.78
2023-03-24T22:17:46.968Z,14.69
2023-03-24T22:20:15.784Z,14.66
2023-03-24T22:22:42.832Z,14.64
2023-03-24T22:25:13.906Z,14.58
2023-03-24T22:27:41.318Z,14.58
2023-03-24T22:30:11.913Z,14.56
2023-03-24T22:32:39.365Z,14.55
2023-03-24T22:35:08.080Z,14.55
2023-03-24T22:37:36.563Z,14.50
2023-03-24T22:40:05.624Z,14.50
2023-03-24T22:42:32.712Z,14.50
2023-03-24T22:44:59.591Z,14.46
2023-03-24T22:47:27.495Z,14.47
2023-03-24T22:49:54.709Z,14.52
2023-03-24T22:52:21.657Z,14.52
2023-03-24T22:54:50.010Z,14.51
2023-03-24T22:57:18.685Z,14.47
2023-03-24T22:59:45.873Z,14.51
2023-03-24T23:02:13.041Z,14.52
2023-03-24T23:04:41.247Z,14.57
2023-03-24T23:07:09.357Z,14.52
2023-03-24T23:09:39.965Z,14.55
2023-03-24T23:12:08.998Z,14.61
2023-03-24T23:14:38.023Z,14.68
2023-03-24T23:17:05.144Z,14.73
2023-03-24T23:19:34.071Z,14.71
2023-03-24T23:22:01.117Z,14.69
2023-03-24T23:24:28.749Z,14.66
2023-03-24T23:26:55.751Z,14.68
2023-03-24T23:29:24.038Z,14.71
2023-03-24T23:31:51.293Z,14.64
2023-03-24T23:34:18.280Z,14.65
2023-03-24T23:36:49.726Z,14.63
2023-03-24T23:39:17.222Z,14.60
2023-03-24T23:41:44.402Z,14.61
2023-03-24T23:44:11.438Z,14.60
2023-03-24T23:46:39.831Z,14.62
2023-03-24T23:49:09.359Z,14.61
2023-03-24T23:51:36.532Z,14.56
2023-03-24T23:54:03.938Z,14.59
2023-03-24T23:56:36.622Z,14.58
2023-03-24T23:59:05.403Z,14.59
